sensor_id;sensor_type;location;lat;lon;timestamp;pressure;altitude;pressure_sealevel;temperature
31921;BMP280;66485;52.128;4.436;2023-06-14T00:02:00;101674.38;;;29.11
31921;BMP280;66485;52.128;4.436;2023-06-14T00:04:26;101680.16;;;29.13
31921;BMP280;66485;52.128;4.436;2023-06-14T00:06:51;101681.38;;;29.12
31921;BMP280;66485;52.128;4.436;2023-06-14T00:09:17;101679.13;;;29.10
31921;BMP280;66485;52.128;4.436;2023-06-14T00:11:43;101679.13;;;29.10
31921;BMP280;66485;52.128;4.436;2023-06-14T00:14:09;101683.84;;;29.09
31921;BMP280;66485;52.128;4.436;2023-06-14T00:16:35;101683.84;;;29.09
31921;BMP280;66485;52.128;4.436;2023-06-14T00:19:03;101679.75;;;29.05
31921;BMP280;66485;52.128;4.436;2023-06-14T00:21:30;101686.78;;;29.06
31921;BMP280;66485;52.128;4.436;2023-06-14T00:23:57;101686.03;;;29.05
31921;BMP280;66485;52.128;4.436;2023-06-14T00:26:22;101696.03;;;29.03
31921;BMP280;66485;52.128;4.436;2023-06-14T00:28:47;101691.28;;;29.03
31921;BMP280;66485;52.128;4.436;2023-06-14T00:31:13;101689.47;;;29.00
31921;BMP280;66485;52.128;4.436;2023-06-14T00:33:38;101698.50;;;29.01
31921;BMP280;66485;52.128;4.436;2023-06-14T00:36:04;101698.50;;;29.01
31921;BMP280;66485;52.128;4.436;2023-06-14T00:38:29;101682.88;;;28.98
31921;BMP280;66485;52.128;4.436;2023-06-14T00:40:54;101682.88;;;28.98
31921;BMP280;66485;52.128;4.436;2023-06-14T00:43:19;101687.63;;;28.97
31921;BMP280;66485;52.128;4.436;2023-06-14T00:45:45;101684.59;;;28.95
31921;BMP280;66485;52.128;4.436;2023-06-14T00:48:10;101687.38;;;28.95
31921;BMP280;66485;52.128;4.436;2023-06-14T00:50:36;101683.06;;;28.94
31921;BMP280;66485;52.128;4.436;2023-06-14T00:53:03;101687.06;;;28.93
31921;BMP280;66485;52.128;4.436;2023-06-14T00:55:29;101687.06;;;28.93
31921;BMP280;66485;52.128;4.436;2023-06-14T00:57:55;101684.19;;;28.88
31921;BMP280;66485;52.128;4.436;2023-06-14T01:00:21;101683.00;;;28.89
31921;BMP280;66485;52.128;4.436;2023-06-14T01:02:47;101685.44;;;28.87
31921;BMP280;66485;52.128;4.436;2023-06-14T01:05:13;101689.69;;;28.88
31921;BMP280;66485;52.128;4.436;2023-06-14T01:10:41;101688.38;;;28.83
31921;BMP280;66485;52.128;4.436;2023-06-14T01:13:32;101683.34;;;28.82
31921;BMP280;66485;52.128;4.436;2023-06-14T01:15:58;101683.06;;;28.80
31921;BMP280;66485;52.128;4.436;2023-06-14T01:18:24;101688.56;;;28.80
31921;BMP280;66485;52.128;4.436;2023-06-14T01:20:51;101686.84;;;28.82
31921;BMP280;66485;52.128;4.436;2023-06-14T01:23:21;101686.84;;;28.82
31921;BMP280;66485;52.128;4.436;2023-06-14T01:25:47;101690.56;;;28.79
31921;BMP280;66485;52.128;4.436;2023-06-14T01:28:18;101690.56;;;28.79
31921;BMP280;66485;52.128;4.436;2023-06-14T01:30:47;101691.78;;;28.78
31921;BMP280;66485;52.128;4.436;2023-06-14T01:33:19;101694.25;;;28.76
31921;BMP280;66485;52.128;4.436;2023-06-14T01:35:47;101688.47;;;28.74
31921;BMP280;66485;52.128;4.436;2023-06-14T01:38:13;101689.69;;;28.73
31921;BMP280;66485;52.128;4.436;2023-06-14T01:40:40;101692.94;;;28.72
31921;BMP280;66485;52.128;4.436;2023-06-14T01:43:07;101688.16;;;28.72
31921;BMP280;66485;52.128;4.436;2023-06-14T01:45:34;101687.41;;;28.72
31921;BMP280;66485;52.128;4.436;2023-06-14T01:48:00;101696.41;;;28.72
31921;BMP280;66485;52.128;4.436;2023-06-14T01:50:30;101696.41;;;28.72
31921;BMP280;66485;52.128;4.436;2023-06-14T01:52:56;101686.38;;;28.69
31921;BMP280;66485;52.128;4.436;2023-06-14T01:55:21;101688.38;;;28.69
31921;BMP280;66485;52.128;4.436;2023-06-14T01:57:47;101690.03;;;28.66
31921;BMP280;66485;52.128;4.436;2023-06-14T02:00:13;101689.28;;;28.66
31921;BMP280;66485;52.128;4.436;2023-06-14T02:02:40;101679.22;;;28.62
31921;BMP280;66485;52.128;4.436;2023-06-14T02:05:05;101690.50;;;28.64
31921;BMP280;66485;52.128;4.436;2023-06-14T02:07:31;101690.50;;;28.64
31921;BMP280;66485;52.128;4.436;2023-06-14T02:09:56;101679.22;;;28.62
31921;BMP280;66485;52.128;4.436;2023-06-14T02:12:22;101681.97;;;28.62
31921;BMP280;66485;52.128;4.436;2023-06-14T02:14:47;101681.97;;;28.62
31921;BMP280;66485;52.128;4.436;2023-06-14T02:17:13;101682.59;;;28.57
31921;BMP280;66485;52.128;4.436;2023-06-14T02:19:39;101681.38;;;28.58
31921;BMP280;66485;52.128;4.436;2023-06-14T02:22:04;101679.84;;;28.57
31921;BMP280;66485;52.128;4.436;2023-06-14T02:24:29;101674.03;;;28.55
31921;BMP280;66485;52.128;4.436;2023-06-14T02:26:55;101674.03;;;28.55
31921;BMP280;66485;52.128;4.436;2023-06-14T02:29:20;101682.78;;;28.54
31921;BMP280;66485;52.128;4.436;2023-06-14T02:31:46;101676.97;;;28.52
31921;BMP280;66485;52.128;4.436;2023-06-14T02:34:13;101681.25;;;28.53
31921;BMP280;66485;52.128;4.436;2023-06-14T02:36:38;101682.03;;;28.53
31921;BMP280;66485;52.128;4.436;2023-06-14T02:39:07;101682.03;;;28.53
31921;BMP280;66485;52.128;4.436;2023-06-14T02:41:34;101692.75;;;28.51
31921;BMP280;66485;52.128;4.436;2023-06-14T02:44:00;101691.25;;;28.50
31921;BMP280;66485;52.128;4.436;2023-06-14T02:46:25;101684.69;;;28.48
31921;BMP280;66485;52.128;4.436;2023-06-14T02:48:50;101698.47;;;28.48
31921;BMP280;66485;52.128;4.436;2023-06-14T02:51:16;101698.47;;;28.48
31921;BMP280;66485;52.128;4.436;2023-06-14T02:53:41;101690.66;;;28.46
31921;BMP280;66485;52.128;4.436;2023-06-14T02:56:06;101690.66;;;28.46
31921;BMP280;66485;52.128;4.436;2023-06-14T02:58:32;101693.09;;;28.44
31921;BMP280;66485;52.128;4.436;2023-06-14T03:00:58;101695.84;;;28.44
31921;BMP280;66485;52.128;4.436;2023-06-14T03:03:29;101702.59;;;28.43
31921;BMP280;66485;52.128;4.436;2023-06-14T03:05:54;101702.59;;;28.43
31921;BMP280;66485;52.128;4.436;2023-06-14T03:08:20;101695.28;;;28.40
31921;BMP280;66485;52.128;4.436;2023-06-14T03:10:46;101695.28;;;28.40
31921;BMP280;66485;52.128;4.436;2023-06-14T03:13:13;101700.03;;;28.40
31921;BMP280;66485;52.128;4.436;2023-06-14T03:15:38;101700.78;;;28.40
31921;BMP280;66485;52.128;4.436;2023-06-14T03:18:07;101708.28;;;28.40
31921;BMP280;66485;52.128;4.436;2023-06-14T03:20:33;101711.53;;;28.38
31921;BMP280;66485;52.128;4.436;2023-06-14T03:23:00;101714.75;;;28.37
31921;BMP280;66485;52.128;4.436;2023-06-14T03:25:25;101714.75;;;28.37
31921;BMP280;66485;52.128;4.436;2023-06-14T03:27:54;101715.22;;;28.35
31921;BMP280;66485;52.128;4.436;2023-06-14T03:30:20;101718.00;;;28.35
31921;BMP280;66485;52.128;4.436;2023-06-14T03:32:45;101722.72;;;28.35
31921;BMP280;66485;52.128;4.436;2023-06-14T03:35:10;101719.66;;;28.33
31921;BMP280;66485;52.128;4.436;2023-06-14T03:37:42;101719.66;;;28.33
31921;BMP280;66485;52.128;4.436;2023-06-14T03:40:08;101727.16;;;28.32
31921;BMP280;66485;52.128;4.436;2023-06-14T03:42:33;101725.63;;;28.31
31921;BMP280;66485;52.128;4.436;2023-06-14T03:44:59;101727.63;;;28.31
31921;BMP280;66485;52.128;4.436;2023-06-14T03:47:24;101727.63;;;28.31
31921;BMP280;66485;52.128;4.436;2023-06-14T03:49:50;101724.31;;;28.27
31921;BMP280;66485;52.128;4.436;2023-06-14T03:52:15;101724.31;;;28.27
31921;BMP280;66485;52.128;4.436;2023-06-14T03:54:42;101732.09;;;28.28
31921;BMP280;66485;52.128;4.436;2023-06-14T03:57:09;101724.44;;;28.23
31921;BMP280;66485;52.128;4.436;2023-06-14T03:59:35;101733.78;;;28.26
31921;BMP280;66485;52.128;4.436;2023-06-14T04:02:01;101740.84;;;28.27
31921;BMP280;66485;52.128;4.436;2023-06-14T04:04:27;101734.56;;;28.26
31921;BMP280;66485;52.128;4.436;2023-06-14T04:06:57;101742.81;;;28.26
31921;BMP280;66485;52.128;4.436;2023-06-14T04:09:24;101742.81;;;28.26
31921;BMP280;66485;52.128;4.436;2023-06-14T04:11:53;101746.03;;;28.25
31921;BMP280;66485;52.128;4.436;2023-06-14T04:14:19;101736.28;;;28.24
31921;BMP280;66485;52.128;4.436;2023-06-14T04:16:48;101754.00;;;28.23
31921;BMP280;66485;52.128;4.436;2023-06-14T04:19:15;101745.44;;;28.21
31921;BMP280;66485;52.128;4.436;2023-06-14T04:21:41;101745.91;;;28.19
31921;BMP280;66485;52.128;4.436;2023-06-14T04:24:06;101745.91;;;28.19
31921;BMP280;66485;52.128;4.436;2023-06-14T04:26:32;101747.88;;;28.18
31921;BMP280;66485;52.128;4.436;2023-06-14T04:29:00;101749.69;;;28.22
31921;BMP280;66485;52.128;4.436;2023-06-14T04:31:28;101748.19;;;28.21
31921;BMP280;66485;52.128;4.436;2023-06-14T04:33:55;101750.19;;;28.20
31921;BMP280;66485;52.128;4.436;2023-06-14T04:36:20;101750.19;;;28.20
31921;BMP280;66485;52.128;4.436;2023-06-14T04:38:46;101742.88;;;28.17
31921;BMP280;66485;52.128;4.436;2023-06-14T04:41:11;101756.47;;;28.21
31921;BMP280;66485;52.128;4.436;2023-06-14T04:43:37;101756.47;;;28.21
31921;BMP280;66485;52.128;4.436;2023-06-14T04:46:06;101752.94;;;28.20
31921;BMP280;66485;52.128;4.436;2023-06-14T04:48:37;101751.41;;;28.19
31921;BMP280;66485;52.128;4.436;2023-06-14T04:51:03;101753.88;;;28.17
31921;BMP280;66485;52.128;4.436;2023-06-14T04:53:29;101752.63;;;28.18
31921;BMP280;66485;52.128;4.436;2023-06-14T04:55:54;101752.63;;;28.18
31921;BMP280;66485;52.128;4.436;2023-06-14T04:58:20;101753.88;;;28.17
31921;BMP280;66485;52.128;4.436;2023-06-14T05:00:45;101753.13;;;28.16
31921;BMP280;66485;52.128;4.436;2023-06-14T05:03:10;101747.59;;;28.16
31921;BMP280;66485;52.128;4.436;2023-06-14T05:05:39;101751.13;;;28.17
31921;BMP280;66485;52.128;4.436;2023-06-14T05:08:04;101754.66;;;28.17
31921;BMP280;66485;52.128;4.436;2023-06-14T05:10:29;101763.38;;;28.16
31921;BMP280;66485;52.128;4.436;2023-06-14T05:12:55;101760.63;;;28.16
31921;BMP280;66485;52.128;4.436;2023-06-14T05:15:20;101766.13;;;28.16
31921;BMP280;66485;52.128;4.436;2023-06-14T05:17:50;101760.63;;;28.16
31921;BMP280;66485;52.128;4.436;2023-06-14T05:20:20;101760.63;;;28.16
31921;BMP280;66485;52.128;4.436;2023-06-14T05:22:45;101769.66;;;28.16
31921;BMP280;66485;52.128;4.436;2023-06-14T05:25:11;101772.84;;;28.15
31921;BMP280;66485;52.128;4.436;2023-06-14T05:27:36;101775.59;;;28.15
31921;BMP280;66485;52.128;4.436;2023-06-14T05:30:03;101775.59;;;28.15
31921;BMP280;66485;52.128;4.436;2023-06-14T05:32:29;101778.69;;;28.17
31921;BMP280;66485;52.128;4.436;2023-06-14T05:34:55;101778.69;;;28.17
31921;BMP280;66485;52.128;4.436;2023-06-14T05:37:20;101778.09;;;28.13
31921;BMP280;66485;52.128;4.436;2023-06-14T05:39:46;101777.16;;;28.16
31921;BMP280;66485;52.128;4.436;2023-06-14T05:42:11;101779.13;;;28.15
31921;BMP280;66485;52.128;4.436;2023-06-14T05:44:36;101779.13;;;28.15
31921;BMP280;66485;52.128;4.436;2023-06-14T05:47:02;101772.84;;;28.15
31921;BMP280;66485;52.128;4.436;2023-06-14T05:49:27;101774.09;;;28.14
31921;BMP280;66485;52.128;4.436;2023-06-14T05:51:52;101780.38;;;28.14
31921;BMP280;66485;52.128;4.436;2023-06-14T05:54:17;101780.38;;;28.14
31921;BMP280;66485;52.128;4.436;2023-06-14T05:56:43;101775.31;;;28.13
31921;BMP280;66485;52.128;4.436;2023-06-14T05:59:08;101784.34;;;28.13
31921;BMP280;66485;52.128;4.436;2023-06-14T06:01:33;101784.34;;;28.13
31921;BMP280;66485;52.128;4.436;2023-06-14T06:04:01;101798.91;;;28.14
31921;BMP280;66485;52.128;4.436;2023-06-14T06:06:27;101794.59;;;28.13
31921;BMP280;66485;52.128;4.436;2023-06-14T06:08:52;101794.59;;;28.13
31921;BMP280;66485;52.128;4.436;2023-06-14T06:11:17;101803.66;;;28.13
31921;BMP280;66485;52.128;4.436;2023-06-14T06:13:43;101792.00;;;28.09
31921;BMP280;66485;52.128;4.436;2023-06-14T06:16:08;101800.13;;;28.13
31921;BMP280;66485;52.128;4.436;2023-06-14T06:18:33;101798.91;;;28.14
31921;BMP280;66485;52.128;4.436;2023-06-14T06:20:59;101797.38;;;28.13
31921;BMP280;66485;52.128;4.436;2023-06-14T06:23:25;101797.38;;;28.13
31921;BMP280;66485;52.128;4.436;2023-06-14T06:25:51;101802.88;;;28.13
31921;BMP280;66485;52.128;4.436;2023-06-14T06:28:17;101802.88;;;28.13
31921;BMP280;66485;52.128;4.436;2023-06-14T06:30:42;101806.09;;;28.11
31921;BMP280;66485;52.128;4.436;2023-06-14T06:33:08;101806.09;;;28.11
31921;BMP280;66485;52.128;4.436;2023-06-14T06:35:33;101810.81;;;28.11
31921;BMP280;66485;52.128;4.436;2023-06-14T06:37:59;101810.81;;;28.11
31921;BMP280;66485;52.128;4.436;2023-06-14T06:40:25;101812.03;;;28.10
31921;BMP280;66485;52.128;4.436;2023-06-14T06:42:50;101822.59;;;28.11
31921;BMP280;66485;52.128;4.436;2023-06-14T06:45:16;101819.84;;;28.11
31921;BMP280;66485;52.128;4.436;2023-06-14T06:47:41;101816.34;;;28.11
31921;BMP280;66485;52.128;4.436;2023-06-14T06:50:07;101816.34;;;28.11
31921;BMP280;66485;52.128;4.436;2023-06-14T06:52:33;101825.38;;;28.11
31921;BMP280;66485;52.128;4.436;2023-06-14T06:54:58;101830.09;;;28.11
31921;BMP280;66485;52.128;4.436;2023-06-14T06:57:23;101831.31;;;28.10
31921;BMP280;66485;52.128;4.436;2023-06-14T06:59:49;101839.88;;;28.12
31921;BMP280;66485;52.128;4.436;2023-06-14T07:02:15;101841.13;;;28.11
31921;BMP280;66485;52.128;4.436;2023-06-14T07:04:40;101841.13;;;28.11
31921;BMP280;66485;52.128;4.436;2023-06-14T07:07:06;101836.84;;;28.10
31921;BMP280;66485;52.128;4.436;2023-06-14T07:09:31;101852.91;;;28.11
31921;BMP280;66485;52.128;4.436;2023-06-14T07:11:57;101852.91;;;28.11
31921;BMP280;66485;52.128;4.436;2023-06-14T07:14:22;101845.59;;;28.08
31921;BMP280;66485;52.128;4.436;2023-06-14T07:16:48;101845.59;;;28.08
31921;BMP280;66485;52.128;4.436;2023-06-14T07:19:14;101845.88;;;28.10
31921;BMP280;66485;52.128;4.436;2023-06-14T07:21:40;101852.16;;;28.11
31921;BMP280;66485;52.128;4.436;2023-06-14T07:24:05;101843.88;;;28.11
31921;BMP280;66485;52.128;4.436;2023-06-14T07:26:31;101847.41;;;28.11
31921;BMP280;66485;52.128;4.436;2023-06-14T07:28:57;101854.13;;;28.10
31921;BMP280;66485;52.128;4.436;2023-06-14T07:31:22;101850.16;;;28.11
31921;BMP280;66485;52.128;4.436;2023-06-14T07:33:47;101858.44;;;28.11
31921;BMP280;66485;52.128;4.436;2023-06-14T07:36:13;101852.16;;;28.11
31921;BMP280;66485;52.128;4.436;2023-06-14T07:38:38;101846.63;;;28.11
31921;BMP280;66485;52.128;4.436;2023-06-14T07:41:05;101852.16;;;28.11
31921;BMP280;66485;52.128;4.436;2023-06-14T07:43:30;101856.41;;;28.12
31921;BMP280;66485;52.128;4.436;2023-06-14T07:45:56;101856.41;;;28.12
31921;BMP280;66485;52.128;4.436;2023-06-14T07:48:22;101850.91;;;28.12
31921;BMP280;66485;52.128;4.436;2023-06-14T07:50:47;101863.47;;;28.13
31921;BMP280;66485;52.128;4.436;2023-06-14T07:53:13;101862.25;;;28.14
31921;BMP280;66485;52.128;4.436;2023-06-14T07:55:38;101870.53;;;28.14
31921;BMP280;66485;52.128;4.436;2023-06-14T07:58:05;101870.53;;;28.14
31921;BMP280;66485;52.128;4.436;2023-06-14T08:00:31;101870.66;;;28.10
31921;BMP280;66485;52.128;4.436;2023-06-14T08:02:57;101876.03;;;28.14
31921;BMP280;66485;52.128;4.436;2023-06-14T08:05:25;101876.03;;;28.14
31921;BMP280;66485;52.128;4.436;2023-06-14T08:07:51;101875.41;;;28.10
31921;BMP280;66485;52.128;4.436;2023-06-14T08:10:17;101871.50;;;27.75
31921;BMP280;66485;52.128;4.436;2023-06-14T08:12:43;101873.59;;;27.80
31921;BMP280;66485;52.128;4.436;2023-06-14T08:15:08;101873.59;;;27.80
31921;BMP280;66485;52.128;4.436;2023-06-14T08:17:34;101869.63;;;27.71
31921;BMP280;66485;52.128;4.436;2023-06-14T08:19:59;101869.63;;;27.71
31921;BMP280;66485;52.128;4.436;2023-06-14T08:22:25;101882.78;;;27.58
31921;BMP280;66485;52.128;4.436;2023-06-14T08:24:53;101874.19;;;27.47
31921;BMP280;66485;52.128;4.436;2023-06-14T08:27:19;101877.28;;;27.49
31921;BMP280;66485;52.128;4.436;2023-06-14T08:29:45;101871.47;;;27.38
31921;BMP280;66485;52.128;4.436;2023-06-14T08:32:10;101871.47;;;27.38
31921;BMP280;66485;52.128;4.436;2023-06-14T08:34:35;101879.41;;;27.36
31921;BMP280;66485;52.128;4.436;2023-06-14T08:37:01;101873.75;;;27.31
31921;BMP280;66485;52.128;4.436;2023-06-14T08:39:26;101865.19;;;27.29
31921;BMP280;66485;52.128;4.436;2023-06-14T08:41:52;101876.31;;;27.25
31921;BMP280;66485;52.128;4.436;2023-06-14T08:44:17;101865.63;;;27.36
31921;BMP280;66485;52.128;4.436;2023-06-14T08:46:43;101876.19;;;27.38
31921;BMP280;66485;52.128;4.436;2023-06-14T08:49:12;101876.19;;;27.38
31921;BMP280;66485;52.128;4.436;2023-06-14T08:51:37;101873.28;;;27.41
31921;BMP280;66485;52.128;4.436;2023-06-14T08:54:03;101873.28;;;27.41
31921;BMP280;66485;52.128;4.436;2023-06-14T08:56:30;101862.00;;;27.39
31921;BMP280;66485;52.128;4.436;2023-06-14T08:58:58;101881.13;;;27.52
31921;BMP280;66485;52.128;4.436;2023-06-14T09:01:28;101875.91;;;27.54
31921;BMP280;66485;52.128;4.436;2023-06-14T09:03:53;101875.91;;;27.54
31921;BMP280;66485;52.128;4.436;2023-06-14T09:06:22;101877.72;;;27.48
31921;BMP280;66485;52.128;4.436;2023-06-14T09:08:49;101878.81;;;27.59
31921;BMP280;66485;52.128;4.436;2023-06-14T09:11:17;101878.38;;;27.70
31921;BMP280;66485;52.128;4.436;2023-06-14T09:13:44;101883.09;;;27.60
31921;BMP280;66485;52.128;4.436;2023-06-14T09:16:10;101883.09;;;27.60
31921;BMP280;66485;52.128;4.436;2023-06-14T09:18:42;101882.03;;;27.67
31921;BMP280;66485;52.128;4.436;2023-06-14T09:21:14;101885.06;;;27.78
31921;BMP280;66485;52.128;4.436;2023-06-14T09:23:42;101885.06;;;27.78
31921;BMP280;66485;52.128;4.436;2023-06-14T09:26:08;101883.25;;;27.84
31921;BMP280;66485;52.128;4.436;2023-06-14T09:28:35;101883.25;;;27.84
31921;BMP280;66485;52.128;4.436;2023-06-14T09:31:01;101885.22;;;28.02
31921;BMP280;66485;52.128;4.436;2023-06-14T09:33:26;101885.22;;;28.02
31921;BMP280;66485;52.128;4.436;2023-06-14T09:35:54;101887.53;;;27.94
31921;BMP280;66485;52.128;4.436;2023-06-14T09:38:19;101894.09;;;28.06
31921;BMP280;66485;52.128;4.436;2023-06-14T09:40:45;101887.50;;;28.03
31921;BMP280;66485;52.128;4.436;2023-06-14T09:43:11;101890.09;;;28.07
31921;BMP280;66485;52.128;4.436;2023-06-14T09:45:37;101891.47;;;28.11
31921;BMP280;66485;52.128;4.436;2023-06-14T09:48:06;101884.88;;;28.09
31921;BMP280;66485;52.128;4.436;2023-06-14T09:50:32;101884.88;;;28.09
31921;BMP280;66485;52.128;4.436;2023-06-14T09:53:05;101879.94;;;28.31
31921;BMP280;66485;52.128;4.436;2023-06-14T09:55:31;101897.69;;;28.39
31921;BMP280;66485;52.128;4.436;2023-06-14T09:57:59;101897.69;;;28.39
31921;BMP280;66485;52.128;4.436;2023-06-14T10:00:26;101894.28;;;28.53
31921;BMP280;66485;52.128;4.436;2023-06-14T10:02:54;101894.91;;;28.48
31921;BMP280;66485;52.128;4.436;2023-06-14T10:05:24;101897.94;;;28.59
31921;BMP280;66485;52.128;4.436;2023-06-14T10:08:08;101891.97;;;28.52
31921;BMP280;66485;52.128;4.436;2023-06-14T10:10:33;101885.66;;;28.60
31921;BMP280;66485;52.128;4.436;2023-06-14T10:12:59;101897.56;;;28.67
31921;BMP280;66485;52.128;4.436;2023-06-14T10:15:38;101893.44;;;28.71
31921;BMP280;66485;52.128;4.436;2023-06-14T10:18:18;101893.44;;;28.71
31921;BMP280;66485;52.128;4.436;2023-06-14T10:21:13;101892.69;;;28.71
31921;BMP280;66485;52.128;4.436;2023-06-14T10:23:42;101891.47;;;28.72
31921;BMP280;66485;52.128;4.436;2023-06-14T10:26:18;101890.97;;;28.73
31921;BMP280;66485;52.128;4.436;2023-06-14T10:29:06;101890.97;;;28.73
31921;BMP280;66485;52.128;4.436;2023-06-14T10:31:47;101889.91;;;28.71
31921;BMP280;66485;52.128;4.436;2023-06-14T10:34:27;101889.91;;;28.71
31921;BMP280;66485;52.128;4.436;2023-06-14T10:37:07;101882.47;;;28.86
31921;BMP280;66485;52.128;4.436;2023-06-14T10:39:40;101882.47;;;28.86
31921;BMP280;66485;52.128;4.436;2023-06-14T10:42:06;101883.38;;;28.92
31921;BMP280;66485;52.128;4.436;2023-06-14T10:44:41;101883.38;;;28.92
31921;BMP280;66485;52.128;4.436;2023-06-14T10:50:02;101887.72;;;29.07
31921;BMP280;66485;52.128;4.436;2023-06-14T10:52:29;101887.72;;;29.07
31921;BMP280;66485;52.128;4.436;2023-06-14T10:57:32;101893.66;;;29.15
31921;BMP280;66485;52.128;4.436;2023-06-14T11:00:01;101893.66;;;29.15
31921;BMP280;66485;52.128;4.436;2023-06-14T11:02:51;101897.94;;;29.16
31921;BMP280;66485;52.128;4.436;2023-06-14T11:05:24;101892.72;;;29.18
31921;BMP280;66485;52.128;4.436;2023-06-14T11:10:39;101885.53;;;30.03
31921;BMP280;66485;52.128;4.436;2023-06-14T11:13:06;101891.22;;;29.85
31921;BMP280;66485;52.128;4.436;2023-06-14T11:15:32;101891.22;;;29.85
31921;BMP280;66485;52.128;4.436;2023-06-14T11:18:05;101879.00;;;29.47
31921;BMP280;66485;52.128;4.436;2023-06-14T11:20:32;101879.28;;;29.49
31921;BMP280;66485;52.128;4.436;2023-06-14T11:22:58;101879.28;;;29.49
31921;BMP280;66485;52.128;4.436;2023-06-14T11:25:24;101881.00;;;29.47
31921;BMP280;66485;52.128;4.436;2023-06-14T11:27:50;101873.00;;;29.49
31921;BMP280;66485;52.128;4.436;2023-06-14T11:30:16;101873.00;;;29.49
31921;BMP280;66485;52.128;4.436;2023-06-14T11:32:42;101876.75;;;29.46
31921;BMP280;66485;52.128;4.436;2023-06-14T11:35:11;101880.13;;;29.41
31921;BMP280;66485;52.128;4.436;2023-06-14T11:37:37;101876.91;;;29.42
31921;BMP280;66485;52.128;4.436;2023-06-14T11:40:04;101876.91;;;29.42
31921;BMP280;66485;52.128;4.436;2023-06-14T11:42:38;101877.19;;;29.44
31921;BMP280;66485;52.128;4.436;2023-06-14T11:45:06;101871.69;;;29.44
31921;BMP280;66485;52.128;4.436;2023-06-14T11:47:32;101875.97;;;29.45
31921;BMP280;66485;52.128;4.436;2023-06-14T11:50:07;101867.97;;;29.47
31921;BMP280;66485;52.128;4.436;2023-06-14T11:52:36;101864.44;;;29.47
31921;BMP280;66485;52.128;4.436;2023-06-14T11:55:03;101864.44;;;29.47
31921;BMP280;66485;52.128;4.436;2023-06-14T11:57:35;101880.31;;;29.52
31921;BMP280;66485;52.128;4.436;2023-06-14T12:00:03;101880.31;;;29.52
31921;BMP280;66485;52.128;4.436;2023-06-14T12:02:32;101878.66;;;29.54
31921;BMP280;66485;52.128;4.436;2023-06-14T12:05:04;101878.66;;;29.54
31921;BMP280;66485;52.128;4.436;2023-06-14T12:07:30;101881.50;;;29.60
31921;BMP280;66485;52.128;4.436;2023-06-14T12:12:22;101878.53;;;29.64
31921;BMP280;66485;52.128;4.436;2023-06-14T12:14:47;101873.34;;;29.66
31921;BMP280;66485;52.128;4.436;2023-06-14T12:17:13;101864.56;;;29.67
31921;BMP280;66485;52.128;4.436;2023-06-14T12:19:43;101864.56;;;29.67
31921;BMP280;66485;52.128;4.436;2023-06-14T12:22:12;101879.72;;;29.72
31921;BMP280;66485;52.128;4.436;2023-06-14T12:24:38;101879.72;;;29.72
31921;BMP280;66485;52.128;4.436;2023-06-14T12:27:04;101871.91;;;29.70
31921;BMP280;66485;52.128;4.436;2023-06-14T12:29:31;101875.69;;;29.73
31921;BMP280;66485;52.128;4.436;2023-06-14T12:31:56;101881.16;;;29.82
31921;BMP280;66485;52.128;4.436;2023-06-14T12:34:25;101876.38;;;29.82
31921;BMP280;66485;52.128;4.436;2023-06-14T12:36:55;101877.16;;;29.83
31921;BMP280;66485;52.128;4.436;2023-06-14T12:39:21;101886.00;;;29.87
31921;BMP280;66485;52.128;4.436;2023-06-14T12:41:47;101875.25;;;29.89
31921;BMP280;66485;52.128;4.436;2023-06-14T12:44:12;101881.53;;;29.89
31921;BMP280;66485;52.128;4.436;2023-06-14T12:46:39;101886.09;;;29.92
31921;BMP280;66485;52.128;4.436;2023-06-14T12:49:05;101886.09;;;29.92
31921;BMP280;66485;52.128;4.436;2023-06-14T12:51:30;101881.16;;;29.96
31921;BMP280;66485;52.128;4.436;2023-06-14T12:53:56;101874.69;;;29.99
31921;BMP280;66485;52.128;4.436;2023-06-14T12:56:21;101875.44;;;30.00
31921;BMP280;66485;52.128;4.436;2023-06-14T12:58:47;101878.22;;;30.00
31921;BMP280;66485;52.128;4.436;2023-06-14T13:01:12;101883.06;;;30.05
31921;BMP280;66485;52.128;4.436;2023-06-14T13:03:37;101884.59;;;30.06
31921;BMP280;66485;52.128;4.436;2023-06-14T13:06:03;101890.69;;;30.10
31921;BMP280;66485;52.128;4.436;2023-06-14T13:08:29;101890.69;;;30.10
31921;BMP280;66485;52.128;4.436;2023-06-14T13:10:55;101885.72;;;30.14
31921;BMP280;66485;52.128;4.436;2023-06-14T13:13:21;101891.09;;;30.18
31921;BMP280;66485;52.128;4.436;2023-06-14T13:15:46;101882.31;;;30.19
31921;BMP280;66485;52.128;4.436;2023-06-14T13:18:12;101882.31;;;30.19
31921;BMP280;66485;52.128;4.436;2023-06-14T13:20:40;101883.53;;;30.18
31921;BMP280;66485;52.128;4.436;2023-06-14T13:23:05;101886.59;;;30.20
31921;BMP280;66485;52.128;4.436;2023-06-14T13:25:36;101896.00;;;30.28
31921;BMP280;66485;52.128;4.436;2023-06-14T13:28:03;101896.00;;;30.28
31921;BMP280;66485;52.128;4.436;2023-06-14T13:30:29;101894.28;;;30.31
31921;BMP280;66485;52.128;4.436;2023-06-14T13:32:55;101900.41;;;30.35
31921;BMP280;66485;52.128;4.436;2023-06-14T13:35:21;101892.84;;;30.35
31921;BMP280;66485;52.128;4.436;2023-06-14T13:37:47;101883.31;;;30.36
31921;BMP280;66485;52.128;4.436;2023-06-14T13:40:12;101883.31;;;30.36
31921;BMP280;66485;52.128;4.436;2023-06-14T13:42:38;101881.41;;;30.42
31921;BMP280;66485;52.128;4.436;2023-06-14T13:45:04;101877.41;;;30.43
31921;BMP280;66485;52.128;4.436;2023-06-14T13:47:31;101876.91;;;30.45
31921;BMP280;66485;52.128;4.436;2023-06-14T13:49:57;101876.91;;;30.45
31921;BMP280;66485;52.128;4.436;2023-06-14T13:52:23;101885.00;;;30.48
31921;BMP280;66485;52.128;4.436;2023-06-14T13:54:48;101882.06;;;30.52
31921;BMP280;66485;52.128;4.436;2023-06-14T13:57:15;101890.63;;;30.54
31921;BMP280;66485;52.128;4.436;2023-06-14T13:59:40;101888.91;;;30.57
31921;BMP280;66485;52.128;4.436;2023-06-14T14:02:07;101883.63;;;30.59
31921;BMP280;66485;52.128;4.436;2023-06-14T14:04:33;101883.63;;;30.59
31921;BMP280;66485;52.128;4.436;2023-06-14T14:07:00;101873.16;;;30.63
31921;BMP280;66485;52.128;4.436;2023-06-14T14:09:25;101873.16;;;30.63